Time,TemperatureF,DewpointF,PressureIn,WindDirection,WindDirectionDegrees,WindSpeedMPH,WindSpeedGustMPH,Humidity,HourlyPrecipIn,Conditions,Clouds,dailyrainin,SoftwareType,DateUTC
2013-07-09 00:10:00,72.7,72.4,30.08,SE,135,0.0,-999.0,99,-99.99,,,0.24,Acu-Link.com,2013-07-09 04:10:00,
2013-07-09 00:41:00,72.1,71.8,30.06,SE,135,0.0,-999.0,99,-99.99,,,0.32,Acu-Link.com,2013-07-09 04:41:00,
2013-07-09 00:56:00,72.1,71.8,30.04,SW,225,0.0,-999.0,99,-99.99,,,0.32,Acu-Link.com,2013-07-09 04:56:00,
2013-07-09 01:11:00,72.0,71.7,30.04,East,90,0.0,-999.0,99,-99.99,,,0.32,Acu-Link.com,2013-07-09 05:11:00,
2013-07-09 01:27:00,72.0,71.7,30.04,West,270,0.0,-999.0,99,-99.99,,,0.32,Acu-Link.com,2013-07-09 05:27:00,
2013-07-09 01:42:00,71.8,71.5,30.05,West,270,0.0,-999.0,99,-99.99,,,0.32,Acu-Link.com,2013-07-09 05:42:00,
2013-07-09 01:57:00,71.8,71.5,30.06,West,270,0.0,-999.0,99,-99.99,,,0.32,Acu-Link.com,2013-07-09 05:57:00,
2013-07-09 02:12:00,71.6,71.3,30.07,WSW,247,0.0,-999.0,99,-99.99,,,0.33,Acu-Link.com,2013-07-09 06:12:00,
2013-07-09 02:28:00,71.6,71.3,30.05,ESE,112,0.0,-999.0,99,-99.99,,,0.34,Acu-Link.com,2013-07-09 06:28:00,
2013-07-09 02:43:00,71.6,71.3,30.04,South,180,0.0,-999.0,99,-99.99,,,0.38,Acu-Link.com,2013-07-09 06:43:00,
2013-07-09 02:58:00,71.6,71.3,30.04,SE,135,0.0,-999.0,99,-99.99,,,0.41,Acu-Link.com,2013-07-09 06:58:00,
2013-07-09 03:14:00,71.4,71.1,30.05,SW,225,0.0,-999.0,99,-99.99,,,0.42,Acu-Link.com,2013-07-09 07:14:00,
2013-07-09 03:29:00,71.2,70.9,30.05,SSW,202,0.0,-999.0,99,-99.99,,,0.43,Acu-Link.com,2013-07-09 07:29:00,
2013-07-09 03:44:00,70.9,70.6,30.04,South,180,0.0,-999.0,99,-99.99,,,0.43,Acu-Link.com,2013-07-09 07:44:00,
2013-07-09 03:59:00,70.7,70.4,30.03,SW,225,0.0,-999.0,99,-99.99,,,0.43,Acu-Link.com,2013-07-09 07:59:00,
2013-07-09 04:16:00,70.7,70.4,30.03,SSW,202,0.0,-999.0,99,-99.99,,,0.44,Acu-Link.com,2013-07-09 08:16:00,
2013-07-09 04:31:00,70.5,70.2,30.02,West,270,0.0,-999.0,99,-99.99,,,0.44,Acu-Link.com,2013-07-09 08:31:00,
2013-07-09 04:47:00,70.7,70.4,30.01,NNW,337,0.0,-999.0,99,-99.99,,,0.46,Acu-Link.com,2013-07-09 08:47:00,
2013-07-09 05:02:00,70.9,70.6,30.00,WSW,247,0.0,-999.0,99,-99.99,,,0.48,Acu-Link.com,2013-07-09 09:02:00,
2013-07-09 05:17:00,70.9,70.6,29.98,NNW,337,2.7,-999.0,99,-99.99,,,0.48,Acu-Link.com,2013-07-09 09:17:00,
2013-07-09 05:32:00,71.1,70.8,29.99,South,180,0.0,-999.0,99,-99.99,,,0.49,Acu-Link.com,2013-07-09 09:32:00,
2013-07-09 05:47:00,71.2,70.9,30.02,South,180,0.0,-999.0,99,-99.99,,,0.49,Acu-Link.com,2013-07-09 09:47:00,
2013-07-09 06:02:00,71.1,70.8,30.03,South,180,0.0,-999.0,99,-99.99,,,0.49,Acu-Link.com,2013-07-09 10:02:00,
2013-07-09 06:18:00,71.1,70.8,30.03,SSE,157,0.0,-999.0,99,-99.99,,,0.49,Acu-Link.com,2013-07-09 10:18:00,
2013-07-09 06:33:00,71.1,70.8,30.03,South,180,0.0,-999.0,99,-99.99,,,0.49,Acu-Link.com,2013-07-09 10:33:00,
2013-07-09 06:48:00,71.2,70.9,30.04,South,180,0.0,-999.0,99,-99.99,,,0.49,Acu-Link.com,2013-07-09 10:48:00,
2013-07-09 07:04:00,71.4,71.1,30.04,NW,315,0.0,-999.0,99,-99.99,,,0.49,Acu-Link.com,2013-07-09 11:04:00,
2013-07-09 07:19:00,71.8,71.5,30.04,East,90,0.0,-999.0,99,-99.99,,,0.49,Acu-Link.com,2013-07-09 11:19:00,
2013-07-09 07:34:00,72.0,71.7,30.04,WSW,247,0.0,-999.0,99,-99.99,,,0.49,Acu-Link.com,2013-07-09 11:34:00,
2013-07-09 07:49:00,72.1,71.8,30.04,SW,225,0.0,-999.0,99,-99.99,,,0.49,Acu-Link.com,2013-07-09 11:49:00,
2013-07-09 08:04:00,72.3,72.0,30.04,West,270,0.0,-999.0,99,-99.99,,,0.49,Acu-Link.com,2013-07-09 12:04:00,
2013-07-09 08:19:00,72.5,72.2,30.04,NE,45,0.0,-999.0,99,-99.99,,,0.49,Acu-Link.com,2013-07-09 12:19:00,
2013-07-09 08:35:00,73.0,72.7,30.04,NNW,337,0.0,-999.0,99,-99.99,,,0.49,Acu-Link.com,2013-07-09 12:35:00,
2013-07-09 08:50:00,73.4,73.1,30.04,WNW,292,0.0,-999.0,99,-99.99,,,0.49,Acu-Link.com,2013-07-09 12:50:00,
2013-07-09 09:05:00,73.8,73.5,30.05,SSW,202,0.0,-999.0,99,-99.99,,,0.49,Acu-Link.com,2013-07-09 13:05:00,
2013-07-09 09:20:00,74.1,73.8,30.05,NE,45,0.0,-999.0,99,-99.99,,,0.49,Acu-Link.com,2013-07-09 13:20:00,
2013-07-09 09:36:00,74.5,74.2,30.05,NE,45,0.0,-999.0,99,-99.99,,,0.49,Acu-Link.com,2013-07-09 13:36:00,
2013-07-09 09:51:00,74.7,74.4,30.06,WNW,292,0.0,-999.0,99,-99.99,,,0.49,Acu-Link.com,2013-07-09 13:51:00,
2013-07-09 10:06:00,75.0,74.7,30.06,WNW,292,0.0,-999.0,99,-99.99,,,0.49,Acu-Link.com,2013-07-09 14:06:00,
2013-07-09 10:21:00,75.4,75.1,30.05,West,270,0.0,-999.0,99,-99.99,,,0.49,Acu-Link.com,2013-07-09 14:21:00,
2013-07-09 10:37:00,75.7,75.4,30.05,NNW,337,0.0,-999.0,99,-99.99,,,0.49,Acu-Link.com,2013-07-09 14:37:00,
2013-07-09 10:52:00,75.9,75.6,30.05,WSW,247,0.0,-999.0,99,-99.99,,,0.49,Acu-Link.com,2013-07-09 14:52:00,
2013-07-09 11:08:00,76.6,75.7,30.05,NNW,337,0.0,-999.0,97,-99.99,,,0.49,Acu-Link.com,2013-07-09 15:08:00,
2013-07-09 11:23:00,77.0,76.1,30.05,SSW,202,0.0,-999.0,97,-99.99,,,0.49,Acu-Link.com,2013-07-09 15:23:00,
2013-07-09 11:38:00,77.7,76.1,30.05,SSW,202,0.0,-999.0,95,-99.99,,,0.49,Acu-Link.com,2013-07-09 15:38:00,
2013-07-09 11:54:00,79.5,76.3,30.05,SSE,157,0.0,-999.0,90,-99.99,,,0.49,Acu-Link.com,2013-07-09 15:54:00,
2013-07-09 12:09:00,79.7,77.5,30.05,West,270,0.0,-999.0,93,-99.99,,,0.49,Acu-Link.com,2013-07-09 16:09:00,
2013-07-09 12:24:00,81.1,77.9,30.04,West,270,0.0,-999.0,90,-99.99,,,0.49,Acu-Link.com,2013-07-09 16:24:00,
2013-07-09 12:39:00,81.0,77.8,30.04,NE,45,0.0,-999.0,90,-99.99,,,0.49,Acu-Link.com,2013-07-09 16:39:00,
2013-07-09 12:55:00,81.5,78.9,30.04,South,180,0.0,-999.0,92,-99.99,,,0.49,Acu-Link.com,2013-07-09 16:55:00,
2013-07-09 13:10:00,81.1,77.9,30.05,South,180,0.0,-999.0,90,-99.99,,,0.49,Acu-Link.com,2013-07-09 17:10:00,
2013-07-09 13:26:00,83.5,78.1,30.03,SW,225,0.0,-999.0,84,-99.99,,,0.49,Acu-Link.com,2013-07-09 17:26:00,
2013-07-09 13:41:00,82.8,76.4,30.03,NNE,22,1.1,-999.0,81,-99.99,,,0.49,Acu-Link.com,2013-07-09 17:41:00,
2013-07-09 13:56:00,82.4,77.4,30.02,South,180,0.0,-999.0,85,-99.99,,,0.49,Acu-Link.com,2013-07-09 17:56:00,
2013-07-09 14:12:00,84.0,78.6,30.02,NE,45,1.7,-999.0,84,-99.99,,,0.49,Acu-Link.com,2013-07-09 18:12:00,
2013-07-09 14:27:00,87.3,77.6,30.00,NNE,22,0.0,-999.0,73,-99.99,,,0.49,Acu-Link.com,2013-07-09 18:27:00,
2013-07-09 14:43:00,87.8,76.8,30.00,NW,315,0.0,-999.0,70,-99.99,,,0.49,Acu-Link.com,2013-07-09 18:43:00,
2013-07-09 14:58:00,86.4,79.1,29.99,West,270,0.0,-999.0,79,-99.99,,,0.49,Acu-Link.com,2013-07-09 18:58:00,
2013-07-09 15:13:00,87.1,76.9,29.98,ENE,67,0.0,-999.0,72,-99.99,,,0.49,Acu-Link.com,2013-07-09 19:13:00,
2013-07-09 15:28:00,86.0,78.3,29.97,WSW,247,0.0,-999.0,78,-99.99,,,0.49,Acu-Link.com,2013-07-09 19:28:00,
2013-07-09 15:44:00,86.2,76.1,29.97,East,90,0.0,-999.0,72,-99.99,,,0.49,Acu-Link.com,2013-07-09 19:44:00,
2013-07-09 15:59:00,85.8,77.7,29.95,ESE,112,0.0,-999.0,77,-99.99,,,0.49,Acu-Link.com,2013-07-09 19:59:00,
2013-07-09 16:14:00,85.1,76.7,29.95,West,270,0.0,-999.0,76,-99.99,,,0.49,Acu-Link.com,2013-07-09 20:14:00,
2013-07-09 16:29:00,86.0,79.1,29.95,West,270,0.0,-999.0,80,-99.99,,,0.49,Acu-Link.com,2013-07-09 20:29:00,
2013-07-09 16:45:00,85.5,78.2,29.95,SSE,157,0.0,-999.0,79,-99.99,,,0.49,Acu-Link.com,2013-07-09 20:45:00,
2013-07-09 17:00:00,84.0,78.3,29.94,WSW,247,0.0,-999.0,83,-99.99,,,0.49,Acu-Link.com,2013-07-09 21:00:00,
2013-07-09 17:15:00,84.7,77.8,29.93,WNW,292,0.0,-999.0,80,-99.99,,,0.49,Acu-Link.com,2013-07-09 21:15:00,
2013-07-09 17:30:00,84.2,79.2,29.93,SW,225,0.0,-999.0,85,-99.99,,,0.49,Acu-Link.com,2013-07-09 21:30:00,
2013-07-09 17:45:00,83.7,77.6,29.92,SSW,202,0.0,-999.0,82,-99.99,,,0.49,Acu-Link.com,2013-07-09 21:45:00,
2013-07-09 18:01:00,83.5,76.7,29.94,SSW,202,1.1,-999.0,80,-99.99,,,0.49,Acu-Link.com,2013-07-09 22:01:00,
2013-07-09 18:16:00,83.3,77.9,29.93,SSW,202,0.0,-999.0,84,-99.99,,,0.49,Acu-Link.com,2013-07-09 22:16:00,
2013-07-09 18:31:00,83.5,77.8,29.93,SSW,202,0.0,-999.0,83,-99.99,,,0.49,Acu-Link.com,2013-07-09 22:31:00,
2013-07-09 18:47:00,83.5,77.8,29.94,SSW,202,0.0,-999.0,83,-99.99,,,0.49,Acu-Link.com,2013-07-09 22:47:00,
2013-07-09 19:02:00,82.6,78.0,29.93,South,180,0.0,-999.0,86,-99.99,,,0.49,Acu-Link.com,2013-07-09 23:02:00,
2013-07-09 19:17:00,82.0,78.1,29.94,East,90,0.0,-999.0,88,-99.99,,,0.49,Acu-Link.com,2013-07-09 23:17:00,
2013-07-09 19:32:00,81.5,77.2,29.94,South,180,0.0,-999.0,87,-99.99,,,0.49,Acu-Link.com,2013-07-09 23:32:00,
2013-07-09 19:48:00,79.9,76.7,29.94,South,180,0.0,-999.0,90,-99.99,,,0.49,Acu-Link.com,2013-07-09 23:48:00,
2013-07-09 20:03:00,78.8,76.6,29.94,South,180,1.1,-999.0,93,-99.99,,,0.49,Acu-Link.com,2013-07-10 00:03:00,
2013-07-09 20:18:00,78.1,74.6,29.95,West,270,0.0,-999.0,89,-99.99,,,0.49,Acu-Link.com,2013-07-10 00:18:00,
2013-07-09 20:34:00,77.2,73.4,29.96,NW,315,0.0,-999.0,88,-99.99,,,0.49,Acu-Link.com,2013-07-10 00:34:00,
2013-07-09 20:49:00,76.6,73.8,29.96,NNE,22,0.0,-999.0,91,-99.99,,,0.49,Acu-Link.com,2013-07-10 00:49:00,
2013-07-09 21:04:00,75.2,73.3,29.97,ESE,112,0.0,-999.0,94,-99.99,,,0.50,Acu-Link.com,2013-07-10 01:04:00,
2013-07-09 21:19:00,74.1,72.9,29.96,NW,315,2.2,-999.0,96,-99.99,,,0.53,Acu-Link.com,2013-07-10 01:19:00,
2013-07-09 21:34:00,73.4,73.1,29.97,South,180,0.0,-999.0,99,-99.99,,,0.54,Acu-Link.com,2013-07-10 01:34:00,
2013-07-09 21:51:00,73.2,72.9,29.98,SSW,202,0.0,-999.0,99,-99.99,,,0.54,Acu-Link.com,2013-07-10 01:51:00,
2013-07-09 22:07:00,73.2,72.9,30.00,South,180,0.0,-999.0,99,-99.99,,,0.54,Acu-Link.com,2013-07-10 02:07:00,
2013-07-09 22:22:00,73.0,72.7,29.98,SSE,157,0.0,-999.0,99,-99.99,,,0.54,Acu-Link.com,2013-07-10 02:22:00,
2013-07-09 22:37:00,73.0,72.7,29.99,South,180,0.0,-999.0,99,-99.99,,,0.54,Acu-Link.com,2013-07-10 02:37:00,
2013-07-09 22:53:00,72.9,72.6,29.99,SW,225,0.0,-999.0,99,-99.99,,,0.54,Acu-Link.com,2013-07-10 02:53:00,
2013-07-09 23:08:00,72.5,72.2,29.98,WSW,247,0.0,-999.0,99,-99.99,,,0.54,Acu-Link.com,2013-07-10 03:08:00,
2013-07-09 23:23:00,71.8,71.5,29.99,NW,315,2.2,-999.0,99,-99.99,,,0.54,Acu-Link.com,2013-07-10 03:23:00,
2013-07-09 23:38:00,71.4,71.1,30.02,SE,135,0.0,-999.0,99,-99.99,,,0.68,Acu-Link.com,2013-07-10 03:38:00,
2013-07-09 23:54:00,71.1,70.8,30.00,SW,225,0.0,-999.0,99,-99.99,,,1.78,Acu-Link.com,2013-07-10 03:54:00,